createdAt,value
2016-10-09T00:00:12.228Z,84.01
2016-10-09T00:00:33.941Z,83.81
2016-10-09T00:00:55.656Z,84.09
2016-10-09T00:01:17.375Z,83.91
2016-10-09T00:01:39.085Z,83.87
2016-10-09T00:02:03.343Z,83.91
2016-10-09T00:02:25.055Z,83.65
2016-10-09T00:02:46.760Z,83.65
2016-10-09T00:03:08.487Z,83.68
2016-10-09T00:03:30.205Z,83.91
2016-10-09T00:03:51.909Z,83.94
2016-10-09T00:04:13.623Z,83.80
2016-10-09T00:04:35.336Z,83.90
2016-10-09T00:04:57.052Z,83.90
2016-10-09T00:05:18.773Z,83.81
2016-10-09T00:05:40.488Z,84.08
2016-10-09T00:07:07.416Z,84.56
2016-10-09T00:07:29.135Z,84.62
2016-10-09T00:07:50.837Z,84.32
2016-10-09T00:08:17.327Z,83.93
2016-10-09T00:08:39.064Z,83.72
2016-10-09T00:09:05.558Z,83.80
2016-10-09T00:09:27.268Z,84.03
2016-10-09T00:09:48.973Z,83.86
2016-10-09T00:10:10.687Z,83.76
2016-10-09T00:10:32.404Z,83.83
2016-10-09T00:10:54.115Z,83.63
2016-10-09T00:11:15.829Z,83.42
2016-10-09T00:11:37.538Z,83.58
2016-10-09T00:11:59.253Z,83.76
2016-10-09T00:12:20.973Z,83.70
2016-10-09T00:12:42.682Z,83.78
2016-10-09T00:13:04.402Z,83.78
2016-10-09T00:13:52.619Z,83.73
2016-10-09T00:14:14.336Z,83.66
2016-10-09T00:14:36.056Z,83.67
2016-10-09T00:14:57.768Z,83.70
2016-10-09T00:15:19.482Z,83.75
2016-10-09T00:15:41.197Z,83.76
2016-10-09T00:16:02.917Z,83.60
2016-10-09T00:16:24.629Z,83.91
2016-10-09T00:16:46.357Z,84.11
2016-10-09T00:17:08.070Z,84.05
2016-10-09T00:17:29.780Z,83.80
2016-10-09T00:17:51.498Z,83.62
2016-10-09T00:18:13.240Z,83.73
2016-10-09T00:18:34.979Z,83.84
2016-10-09T00:18:56.693Z,83.89
2016-10-09T00:19:18.417Z,83.77
2016-10-09T00:19:40.140Z,83.81
2016-10-09T00:20:01.845Z,83.77
2016-10-09T00:20:23.557Z,83.70
2016-10-09T00:20:45.266Z,83.82
2016-10-09T00:21:06.976Z,83.77
2016-10-09T00:21:28.688Z,83.84
2016-10-09T00:21:50.399Z,83.74
2016-10-09T00:22:12.113Z,83.63
2016-10-09T00:22:38.605Z,83.57
2016-10-09T00:23:00.325Z,83.63
2016-10-09T00:23:22.029Z,83.46
2016-10-09T00:23:43.746Z,83.51
2016-10-09T00:24:05.459Z,83.69
2016-10-09T00:24:27.174Z,83.92
2016-10-09T00:24:49.888Z,83.89
2016-10-09T00:25:11.602Z,83.86
2016-10-09T00:25:36.288Z,84.05
2016-10-09T00:26:00.560Z,84.24
2016-10-09T00:26:22.275Z,84.37
2016-10-09T00:26:43.999Z,84.47
2016-10-09T00:27:05.711Z,84.49
2016-10-09T00:27:27.417Z,84.37
2016-10-09T00:27:49.140Z,84.47
2016-10-09T00:28:10.856Z,84.46
2016-10-09T00:28:32.563Z,84.46
2016-10-09T00:28:54.269Z,84.34
2016-10-09T00:29:15.997Z,84.00
2016-10-09T00:29:37.700Z,83.98
2016-10-09T00:29:59.413Z,84.04
2016-10-09T00:30:21.133Z,83.98
2016-10-09T00:30:42.850Z,84.05
2016-10-09T00:31:04.562Z,84.02
2016-10-09T00:31:26.285Z,84.03
2016-10-09T00:31:48.005Z,83.94
2016-10-09T00:32:09.706Z,83.87
2016-10-09T00:32:36.196Z,83.81
2016-10-09T00:32:57.918Z,83.83
2016-10-09T00:33:19.632Z,83.92
2016-10-09T00:33:41.352Z,83.96
2016-10-09T00:34:03.267Z,83.99
2016-10-09T00:34:24.980Z,84.30
2016-10-09T00:34:46.700Z,84.20
2016-10-09T00:35:08.419Z,84.15
2016-10-09T00:35:30.160Z,84.17
2016-10-09T00:36:28.920Z,84.54
2016-10-09T00:36:51.653Z,84.45
2016-10-09T00:37:18.136Z,84.42
2016-10-09T00:37:39.856Z,84.27
2016-10-09T00:38:01.565Z,84.06
2016-10-09T00:38:23.274Z,83.92
2016-10-09T00:38:44.992Z,83.89
2016-10-09T00:39:06.703Z,83.80
2016-10-09T00:39:28.423Z,83.80
2016-10-09T00:39:50.141Z,83.78
2016-10-09T00:40:11.861Z,83.83
2016-10-09T00:40:33.592Z,83.86
2016-10-09T00:40:55.307Z,83.88
2016-10-09T00:41:17.018Z,84.14
2016-10-09T00:41:38.736Z,84.24
2016-10-09T00:42:05.247Z,84.22
2016-10-09T00:42:26.955Z,84.15
2016-10-09T00:42:48.667Z,84.18
2016-10-09T00:43:10.391Z,84.26
2016-10-09T00:43:32.106Z,84.09
2016-10-09T00:43:53.815Z,84.21
2016-10-09T00:44:15.523Z,84.42
2016-10-09T00:44:37.255Z,84.15
2016-10-09T00:44:58.974Z,83.86
2016-10-09T00:45:20.690Z,83.81
2016-10-09T00:45:42.407Z,83.93
2016-10-09T00:46:04.122Z,84.14
2016-10-09T00:46:25.833Z,84.00
2016-10-09T00:46:47.544Z,84.07
2016-10-09T00:47:09.258Z,84.21
2016-10-09T00:47:33.720Z,84.23
2016-10-09T00:47:55.435Z,84.29
2016-10-09T00:48:17.154Z,84.28
2016-10-09T00:48:38.867Z,84.20
2016-10-09T00:49:00.581Z,84.17
2016-10-09T00:49:22.296Z,84.05
2016-10-09T00:49:44.003Z,83.86
2016-10-09T00:50:06.720Z,83.93
2016-10-09T00:50:28.438Z,84.02
2016-10-09T00:50:50.170Z,84.21
2016-10-09T00:51:11.877Z,84.21
2016-10-09T00:51:33.603Z,84.22
2016-10-09T00:51:55.319Z,84.28
2016-10-09T00:52:21.807Z,84.14
2016-10-09T00:52:43.515Z,83.88
2016-10-09T00:53:10.010Z,83.82
2016-10-09T00:53:31.727Z,83.90
2016-10-09T00:53:56.392Z,84.28
2016-10-09T00:54:18.117Z,84.47
2016-10-09T00:54:39.824Z,84.40
2016-10-09T00:55:01.533Z,84.60
2016-10-09T00:55:23.245Z,84.79
2016-10-09T00:55:47.477Z,84.94
2016-10-09T00:56:09.189Z,84.84
2016-10-09T00:56:30.904Z,85.08
2016-10-09T00:56:53.621Z,84.93
2016-10-09T00:57:15.346Z,84.69
2016-10-09T00:57:37.063Z,84.61
2016-10-09T00:57:58.773Z,84.52
2016-10-09T00:58:20.483Z,84.38
2016-10-09T00:58:42.195Z,84.31
2016-10-09T00:59:03.906Z,84.10
2016-10-09T00:59:25.615Z,84.20
2016-10-09T00:59:47.322Z,84.08
2016-10-09T01:00:09.041Z,84.03
2016-10-09T01:00:30.757Z,84.08
2016-10-09T01:00:52.474Z,84.02
2016-10-09T01:01:14.184Z,83.87
2016-10-09T01:01:35.899Z,83.63
2016-10-09T01:01:57.613Z,83.49
2016-10-09T01:02:19.330Z,83.53
2016-10-09T01:02:41.048Z,83.67
2016-10-09T01:03:02.763Z,83.67
2016-10-09T01:03:24.471Z,83.86
2016-10-09T01:03:46.179Z,84.19
2016-10-09T01:04:07.891Z,84.16
2016-10-09T01:04:29.616Z,84.03
2016-10-09T01:04:51.328Z,84.02
2016-10-09T01:05:13.046Z,84.04
2016-10-09T01:05:34.752Z,83.94
2016-10-09T01:05:56.471Z,83.64
2016-10-09T01:06:18.185Z,83.55
2016-10-09T01:06:39.904Z,83.41
2016-10-09T01:07:06.439Z,83.53
2016-10-09T01:07:28.154Z,83.46
2016-10-09T01:07:49.863Z,83.54
2016-10-09T01:08:11.569Z,84.02
2016-10-09T01:08:33.294Z,83.94
2016-10-09T01:08:55.006Z,84.08
2016-10-09T01:09:16.718Z,83.83
2016-10-09T01:09:38.429Z,83.75
2016-10-09T01:10:00.147Z,83.65
2016-10-09T01:10:21.847Z,83.81
2016-10-09T01:10:43.557Z,83.94
2016-10-09T01:11:05.263Z,83.96
2016-10-09T01:11:26.968Z,84.03
2016-10-09T01:11:48.688Z,83.99
2016-10-09T01:12:10.398Z,83.89
2016-10-09T01:12:32.109Z,83.74
2016-10-09T01:12:53.821Z,84.13
2016-10-09T01:13:15.538Z,84.05
2016-10-09T01:13:37.264Z,84.11
2016-10-09T01:13:58.970Z,84.20
2016-10-09T01:14:20.691Z,84.08
2016-10-09T01:14:42.413Z,84.04
2016-10-09T01:15:04.125Z,83.84
2016-10-09T01:15:25.832Z,83.91
2016-10-09T01:15:47.550Z,83.99
2016-10-09T01:16:09.264Z,84.06
2016-10-09T01:16:30.973Z,84.19
2016-10-09T01:16:52.689Z,84.05
2016-10-09T01:17:14.399Z,84.16
2016-10-09T01:17:36.116Z,84.37
2016-10-09T01:17:57.828Z,84.20
2016-10-09T01:18:24.891Z,84.17
2016-10-09T01:18:46.605Z,84.27
2016-10-09T01:19:08.322Z,84.47
2016-10-09T01:19:30.047Z,84.47
2016-10-09T01:19:51.751Z,84.21
2016-10-09T01:20:13.461Z,84.06
2016-10-09T01:20:35.173Z,84.10
2016-10-09T01:20:56.887Z,84.23
2016-10-09T01:21:18.594Z,84.39
2016-10-09T01:21:40.315Z,84.36
2016-10-09T01:22:02.019Z,84.30
2016-10-09T01:22:23.735Z,84.31
2016-10-09T01:22:45.445Z,84.15
2016-10-09T01:23:07.159Z,84.17
2016-10-09T01:23:28.866Z,84.15
2016-10-09T01:23:50.578Z,83.97
2016-10-09T01:24:12.285Z,83.96
2016-10-09T01:24:33.996Z,84.04
2016-10-09T01:24:55.711Z,84.11
2016-10-09T01:25:17.422Z,84.38
2016-10-09T01:25:39.136Z,84.43
2016-10-09T01:26:00.856Z,84.53
2016-10-09T01:26:22.570Z,84.51
2016-10-09T01:26:44.279Z,84.83
2016-10-09T01:27:06.000Z,85.05
2016-10-09T01:27:27.720Z,84.95
2016-10-09T01:27:49.431Z,84.81
2016-10-09T01:28:11.152Z,84.60
2016-10-09T01:28:32.857Z,84.61
2016-10-09T01:28:54.565Z,84.28
2016-10-09T01:29:16.279Z,84.42
2016-10-09T01:29:38.988Z,84.41
2016-10-09T01:30:00.696Z,84.31
2016-10-09T01:30:22.413Z,84.20
2016-10-09T01:30:46.946Z,84.13
2016-10-09T01:31:08.655Z,84.17
2016-10-09T01:31:30.375Z,84.04
2016-10-09T01:31:52.098Z,84.02
2016-10-09T01:32:13.814Z,83.98
2016-10-09T01:32:35.524Z,84.10
2016-10-09T01:32:57.234Z,84.29
2016-10-09T01:33:18.954Z,84.33
2016-10-09T01:33:40.671Z,84.57
2016-10-09T01:34:02.381Z,84.53
2016-10-09T01:34:24.090Z,84.26
2016-10-09T01:34:45.810Z,84.27
2016-10-09T01:35:07.528Z,84.41
2016-10-09T01:35:29.247Z,84.42
2016-10-09T01:35:50.964Z,84.31
2016-10-09T01:36:12.682Z,84.22
2016-10-09T01:36:34.393Z,84.03
2016-10-09T01:36:56.109Z,83.91
2016-10-09T01:37:17.816Z,83.84
2016-10-09T01:37:39.533Z,84.05
2016-10-09T01:38:01.262Z,83.90
2016-10-09T01:38:22.980Z,84.05
2016-10-09T01:38:44.712Z,84.03
2016-10-09T01:39:06.441Z,83.95
2016-10-09T01:39:28.162Z,83.86
2016-10-09T01:39:49.880Z,83.82
2016-10-09T01:40:11.585Z,83.87
2016-10-09T01:40:33.302Z,84.04
2016-10-09T01:40:55.012Z,84.18
2016-10-09T01:41:16.722Z,84.45
2016-10-09T01:41:38.431Z,84.68
2016-10-09T01:42:00.143Z,84.75
2016-10-09T01:42:21.850Z,84.71
2016-10-09T01:42:43.562Z,84.63
2016-10-09T01:43:05.271Z,84.52
2016-10-09T01:43:26.983Z,84.50
2016-10-09T01:43:48.700Z,84.51
2016-10-09T01:44:10.420Z,84.71
2016-10-09T01:44:32.130Z,84.69
2016-10-09T01:44:53.852Z,84.62
2016-10-09T01:45:15.570Z,84.62
2016-10-09T01:45:37.290Z,84.54
2016-10-09T01:45:58.994Z,84.61
2016-10-09T01:46:20.704Z,84.66
2016-10-09T01:46:42.423Z,84.69
2016-10-09T01:47:09.734Z,84.47
2016-10-09T01:47:57.935Z,84.46
2016-10-09T01:48:57.182Z,84.26
2016-10-09T01:49:18.893Z,84.43
2016-10-09T01:49:40.607Z,84.50
2016-10-09T01:50:02.319Z,84.43
2016-10-09T01:51:04.836Z,84.53
2016-10-09T01:51:26.545Z,84.52
2016-10-09T01:52:20.532Z,84.62
2016-10-09T01:52:42.246Z,84.58
2016-10-09T01:53:03.966Z,84.62
2016-10-09T01:53:25.689Z,84.57
2016-10-09T01:53:47.414Z,84.75
2016-10-09T01:54:09.137Z,84.73
2016-10-09T01:54:30.843Z,84.52
2016-10-09T01:54:57.342Z,84.30
2016-10-09T01:55:19.049Z,84.36
2016-10-09T01:55:40.767Z,84.62
2016-10-09T01:56:02.478Z,84.84
2016-10-09T01:56:24.196Z,84.88
2016-10-09T01:56:45.903Z,84.83
2016-10-09T01:57:07.622Z,84.72
2016-10-09T01:57:29.330Z,84.76
2016-10-09T01:57:52.058Z,84.80
2016-10-09T01:58:13.769Z,84.85
2016-10-09T01:58:35.479Z,84.76
2016-10-09T01:58:57.199Z,84.69
2016-10-09T01:59:46.216Z,85.05
2016-10-09T02:00:07.927Z,85.10
2016-10-09T02:00:29.638Z,85.26
2016-10-09T02:00:51.356Z,85.30
2016-10-09T02:01:13.089Z,85.15
2016-10-09T02:01:34.804Z,85.12
2016-10-09T02:01:56.514Z,85.07
2016-10-09T02:02:18.234Z,85.15
2016-10-09T02:02:39.960Z,85.28
2016-10-09T02:03:01.673Z,85.43
2016-10-09T02:03:54.641Z,85.63
2016-10-09T02:04:59.622Z,85.15
2016-10-09T02:05:30.509Z,84.82
2016-10-09T02:05:52.235Z,84.71
2016-10-09T02:06:13.941Z,84.72
2016-10-09T02:06:35.663Z,84.99
2016-10-09T02:06:57.380Z,85.24
2016-10-09T02:07:19.099Z,85.59
2016-10-09T02:07:40.814Z,85.62
2016-10-09T02:08:02.531Z,85.50
2016-10-09T02:08:24.249Z,85.17
2016-10-09T02:08:45.969Z,85.34
2016-10-09T02:09:07.692Z,85.14
2016-10-09T02:09:29.395Z,85.11
2016-10-09T02:09:51.108Z,84.99
2016-10-09T02:10:12.823Z,84.84
2016-10-09T02:10:34.530Z,84.69
2016-10-09T02:10:56.244Z,84.69
2016-10-09T02:11:55.900Z,84.90
2016-10-09T02:12:17.622Z,84.90
2016-10-09T02:12:39.337Z,84.61
2016-10-09T02:13:01.048Z,84.61
2016-10-09T02:13:22.762Z,84.54
2016-10-09T02:13:49.252Z,84.55
2016-10-09T02:14:56.547Z,84.81
2016-10-09T02:15:18.276Z,84.71
2016-10-09T02:15:41.013Z,84.67
2016-10-09T02:16:02.730Z,84.60
2016-10-09T02:16:24.444Z,84.48
2016-10-09T02:16:46.154Z,84.61
2016-10-09T02:17:07.871Z,84.90
2016-10-09T02:18:15.162Z,85.23
2016-10-09T02:18:36.871Z,85.07
2016-10-09T02:18:58.589Z,84.87
2016-10-09T02:19:20.311Z,84.82
2016-10-09T02:19:42.032Z,84.93
2016-10-09T02:20:08.520Z,85.06
2016-10-09T02:20:30.232Z,85.09
2016-10-09T02:20:51.951Z,85.07
2016-10-09T02:21:13.657Z,84.90
2016-10-09T02:21:36.375Z,84.76
2016-10-09T02:21:58.090Z,84.83
2016-10-09T02:22:47.317Z,84.87
2016-10-09T02:23:10.027Z,84.72
2016-10-09T02:23:31.741Z,84.70
2016-10-09T02:23:53.456Z,84.80
2016-10-09T02:24:15.173Z,84.96
2016-10-09T02:24:36.893Z,85.02
2016-10-09T02:24:58.606Z,84.87
2016-10-09T02:25:20.313Z,85.07
2016-10-09T02:25:42.032Z,85.16
2016-10-09T02:26:06.368Z,85.09
2016-10-09T02:26:28.099Z,85.00
2016-10-09T02:26:49.818Z,85.02
2016-10-09T02:27:11.539Z,84.89
2016-10-09T02:27:33.258Z,84.75
2016-10-09T02:27:57.961Z,85.08
2016-10-09T02:28:24.451Z,85.44
2016-10-09T02:28:46.171Z,85.35
2016-10-09T02:29:34.370Z,84.83
2016-10-09T02:29:56.083Z,84.66
2016-10-09T02:30:17.797Z,84.62
2016-10-09T02:30:39.508Z,84.69
2016-10-09T02:31:32.293Z,85.13
2016-10-09T02:31:54.012Z,85.17
2016-10-09T02:32:16.730Z,85.02
2016-10-09T02:32:43.029Z,85.25
2016-10-09T02:33:07.384Z,85.15
2016-10-09T02:33:34.865Z,84.93
2016-10-09T02:33:57.585Z,84.96
2016-10-09T02:34:34.616Z,85.17
2016-10-09T02:34:56.323Z,85.35
2016-10-09T02:35:18.046Z,85.27
2016-10-09T02:35:39.754Z,85.28
2016-10-09T02:36:42.092Z,85.22
2016-10-09T02:37:03.827Z,85.14
2016-10-09T02:37:28.414Z,85.17
2016-10-09T02:37:55.910Z,85.23
2016-10-09T02:38:20.628Z,85.24
2016-10-09T02:38:42.340Z,85.28
2016-10-09T02:39:04.055Z,85.51
2016-10-09T02:39:26.759Z,85.51
2016-10-09T02:39:49.476Z,85.55
2016-10-09T02:40:11.183Z,85.57
2016-10-09T02:40:33.903Z,85.60
2016-10-09T02:41:37.465Z,85.43
2016-10-09T02:41:59.174Z,85.35
2016-10-09T02:42:20.894Z,85.35
2016-10-09T02:42:45.322Z,85.37
2016-10-09T02:43:07.054Z,85.59
2016-10-09T02:43:28.777Z,85.60
2016-10-09T02:43:50.497Z,85.71
2016-10-09T02:44:12.206Z,85.85
2016-10-09T02:44:33.919Z,85.82
2016-10-09T02:46:12.094Z,85.68
2016-10-09T02:46:34.800Z,85.65
2016-10-09T02:46:56.513Z,85.70
2016-10-09T02:47:22.999Z,85.44
2016-10-09T02:47:44.719Z,85.36
2016-10-09T02:48:06.430Z,85.15
2016-10-09T02:48:33.928Z,85.08
2016-10-09T02:48:55.649Z,85.04
2016-10-09T02:49:17.374Z,84.78
2016-10-09T02:49:39.089Z,84.70
2016-10-09T02:51:01.427Z,85.51
2016-10-09T02:51:23.143Z,85.56
2016-10-09T02:51:44.862Z,85.63
2016-10-09T02:53:48.131Z,85.66
2016-10-09T02:54:41.101Z,85.73
2016-10-09T02:55:03.814Z,85.41
2016-10-09T02:55:25.528Z,85.25
2016-10-09T02:55:47.237Z,85.17
2016-10-09T02:56:09.950Z,85.05
2016-10-09T02:56:31.668Z,85.14
2016-10-09T02:56:53.382Z,84.89
2016-10-09T02:57:41.573Z,84.83
2016-10-09T02:58:49.842Z,85.44
2016-10-09T02:59:11.561Z,85.28
2016-10-09T02:59:33.280Z,85.22
2016-10-09T03:01:12.337Z,85.20
2016-10-09T03:01:34.034Z,85.22
2016-10-09T03:01:55.744Z,85.44
2016-10-09T03:02:17.459Z,85.43
2016-10-09T03:02:39.179Z,85.53
2016-10-09T03:03:00.885Z,85.60
2016-10-09T03:03:25.541Z,85.61
2016-10-09T03:03:47.251Z,85.55
2016-10-09T03:04:08.961Z,85.46
2016-10-09T03:05:04.917Z,85.61
2016-10-09T03:05:26.631Z,85.77
2016-10-09T03:06:19.603Z,86.05
2016-10-09T03:06:41.309Z,85.94
2016-10-09T03:07:03.022Z,85.87
2016-10-09T03:07:24.738Z,85.83
2016-10-09T03:07:46.461Z,85.97
2016-10-09T03:08:08.175Z,86.08
2016-10-09T03:08:29.893Z,86.30
2016-10-09T03:09:29.143Z,86.07
2016-10-09T03:09:50.853Z,85.86
2016-10-09T03:10:12.570Z,85.84
2016-10-09T03:10:34.285Z,85.95
2016-10-09T03:10:55.996Z,86.08
2016-10-09T03:11:27.066Z,85.68
2016-10-09T03:11:48.788Z,85.75
2016-10-09T03:12:10.500Z,85.80
2016-10-09T03:12:32.229Z,86.12
2016-10-09T03:12:53.951Z,86.22
2016-10-09T03:13:15.655Z,86.27
2016-10-09T03:13:37.376Z,86.42
2016-10-09T03:13:59.093Z,86.13
2016-10-09T03:14:20.791Z,86.01
2016-10-09T03:14:42.496Z,86.00
2016-10-09T03:15:04.205Z,85.94
2016-10-09T03:15:25.916Z,86.04
2016-10-09T03:15:53.218Z,85.94
2016-10-09T03:16:29.255Z,85.86
2016-10-09T03:16:55.744Z,85.80
2016-10-09T03:17:17.458Z,85.89
2016-10-09T03:17:39.172Z,86.10
2016-10-09T03:18:00.882Z,86.37
2016-10-09T03:18:22.597Z,86.73
2016-10-09T03:18:45.325Z,87.00
2016-10-09T03:19:33.517Z,86.82
2016-10-09T03:19:55.233Z,86.63
2016-10-09T03:20:16.938Z,86.39
2016-10-09T03:20:38.661Z,86.40
2016-10-09T03:21:00.372Z,86.16
2016-10-09T03:21:22.079Z,85.96
2016-10-09T03:21:49.562Z,85.74
2016-10-09T03:22:11.276Z,85.90
2016-10-09T03:22:32.997Z,86.02
2016-10-09T03:22:59.483Z,85.84
2016-10-09T03:23:35.512Z,85.88
2016-10-09T03:24:05.776Z,85.58
2016-10-09T03:24:37.100Z,85.34
2016-10-09T03:24:58.810Z,85.26
2016-10-09T03:25:20.516Z,85.38
2016-10-09T03:25:42.236Z,85.45
2016-10-09T03:26:40.479Z,85.46
2016-10-09T03:27:02.198Z,85.51
2016-10-09T03:27:23.900Z,85.50
2016-10-09T03:27:45.613Z,85.66
2016-10-09T03:28:07.322Z,86.06
2016-10-09T03:28:29.037Z,86.33
2016-10-09T03:28:50.749Z,86.41
2016-10-09T03:29:49.007Z,86.50
2016-10-09T03:30:10.722Z,86.56
2016-10-09T03:30:32.436Z,86.32
2016-10-09T03:31:20.621Z,86.04
2016-10-09T03:31:47.106Z,85.91
2016-10-09T03:32:35.298Z,85.78
2016-10-09T03:33:01.804Z,85.64
2016-10-09T03:33:28.113Z,85.70
2016-10-09T03:33:49.829Z,85.72
2016-10-09T03:34:42.801Z,85.92
2016-10-09T03:35:05.510Z,86.08
2016-10-09T03:35:27.231Z,86.21
2016-10-09T03:35:48.941Z,86.15
2016-10-09T03:36:10.660Z,86.49
2016-10-09T03:37:08.894Z,86.24
2016-10-09T03:37:30.607Z,86.13
2016-10-09T03:37:52.322Z,86.14
2016-10-09T03:38:15.036Z,86.26
2016-10-09T03:38:36.762Z,86.31
2016-10-09T03:39:40.279Z,86.07
2016-10-09T03:40:01.988Z,85.89
2016-10-09T03:40:23.701Z,85.71
2016-10-09T03:40:45.404Z,85.65
2016-10-09T03:41:07.115Z,85.69
2016-10-09T03:41:29.830Z,85.78
2016-10-09T03:41:51.551Z,85.75
2016-10-09T03:42:39.746Z,85.66
2016-10-09T03:43:09.231Z,85.73
2016-10-09T03:43:33.727Z,85.69
2016-10-09T03:45:08.516Z,86.41
2016-10-09T03:45:30.239Z,86.31
2016-10-09T03:45:51.945Z,86.17
2016-10-09T03:46:18.424Z,86.07
2016-10-09T03:47:12.388Z,86.04
2016-10-09T03:47:38.870Z,85.97
2016-10-09T03:48:01.585Z,85.96
2016-10-09T03:48:23.302Z,85.86
2016-10-09T03:48:46.017Z,85.84
2016-10-09T03:49:07.734Z,85.83
2016-10-09T03:49:29.449Z,85.84
2016-10-09T03:49:51.182Z,85.70
2016-10-09T03:50:17.676Z,85.66
2016-10-09T03:50:39.388Z,85.61
2016-10-09T03:51:01.104Z,85.70
2016-10-09T03:51:23.815Z,85.89
2016-10-09T03:51:45.537Z,85.88
2016-10-09T03:52:07.250Z,85.89
2016-10-09T03:53:12.511Z,85.73
2016-10-09T03:53:34.226Z,85.84
2016-10-09T03:53:58.748Z,86.08
2016-10-09T03:54:20.460Z,86.12
2016-10-09T03:54:42.189Z,86.04
2016-10-09T03:55:03.908Z,86.13
2016-10-09T03:56:07.419Z,86.26
2016-10-09T03:56:30.123Z,86.07
2016-10-09T03:56:51.836Z,86.04
2016-10-09T03:57:13.562Z,86.10
2016-10-09T03:57:35.279Z,86.25
2016-10-09T03:57:56.998Z,86.32
2016-10-09T03:58:18.702Z,86.53
2016-10-09T03:58:40.415Z,86.69
2016-10-09T03:59:02.129Z,86.63
2016-10-09T03:59:23.849Z,86.43
2016-10-09T03:59:45.564Z,86.22
2016-10-09T04:00:07.284Z,86.03
2016-10-09T04:00:33.761Z,85.87
2016-10-09T04:00:55.480Z,85.84
2016-10-09T04:01:17.196Z,85.90
2016-10-09T04:01:38.903Z,86.08
2016-10-09T04:02:00.614Z,86.18
2016-10-09T04:02:22.327Z,86.24
2016-10-09T04:02:44.040Z,86.04
2016-10-09T04:03:06.743Z,85.99
2016-10-09T04:03:28.460Z,86.04
2016-10-09T04:03:50.172Z,86.21
2016-10-09T04:04:11.881Z,86.49
2016-10-09T04:04:33.598Z,86.81
2016-10-09T04:04:55.309Z,86.81
2016-10-09T04:05:17.027Z,86.72
2016-10-09T04:05:41.567Z,86.79
2016-10-09T04:06:03.281Z,86.64
2016-10-09T04:06:25.000Z,86.59
2016-10-09T04:06:46.715Z,86.60
2016-10-09T04:07:08.430Z,86.72
2016-10-09T04:07:30.137Z,86.88
2016-10-09T04:07:51.841Z,86.74
2016-10-09T04:08:13.548Z,86.58
2016-10-09T04:08:35.257Z,86.52
2016-10-09T04:08:56.968Z,86.49
2016-10-09T04:09:18.676Z,86.24
2016-10-09T04:09:40.387Z,86.23
2016-10-09T04:10:02.104Z,86.05
2016-10-09T04:10:23.811Z,85.94
2016-10-09T04:10:45.526Z,85.90
2016-10-09T04:11:07.252Z,85.96
2016-10-09T04:11:28.961Z,85.89
2016-10-09T04:11:50.670Z,85.70
2016-10-09T04:12:12.384Z,85.82
2016-10-09T04:12:34.089Z,86.04
2016-10-09T04:12:55.805Z,86.05
2016-10-09T04:13:17.510Z,86.03
2016-10-09T04:13:39.222Z,85.99
2016-10-09T04:14:00.936Z,86.17
2016-10-09T04:14:22.651Z,86.24
2016-10-09T04:14:44.361Z,86.43
2016-10-09T04:15:06.068Z,86.38
2016-10-09T04:15:27.787Z,86.32
2016-10-09T04:15:49.497Z,86.09
2016-10-09T04:16:11.208Z,86.01
2016-10-09T04:16:32.926Z,86.00
2016-10-09T04:16:54.640Z,86.13
2016-10-09T04:17:16.347Z,86.54
2016-10-09T04:17:38.059Z,86.93
2016-10-09T04:17:59.782Z,87.12
2016-10-09T04:18:21.494Z,87.18
2016-10-09T04:18:43.210Z,87.17
2016-10-09T04:19:04.921Z,87.10
2016-10-09T04:19:26.630Z,87.02
2016-10-09T04:19:48.344Z,86.76
2016-10-09T04:20:10.053Z,86.69
2016-10-09T04:20:31.768Z,86.47
2016-10-09T04:20:53.483Z,86.26
2016-10-09T04:21:15.190Z,86.28
2016-10-09T04:21:41.691Z,86.37
2016-10-09T04:22:03.397Z,86.45
2016-10-09T04:22:25.112Z,86.35
2016-10-09T04:22:46.829Z,86.22
2016-10-09T04:23:08.546Z,86.26
2016-10-09T04:23:30.257Z,86.22
2016-10-09T04:23:51.973Z,86.13
2016-10-09T04:24:13.685Z,86.13
2016-10-09T04:24:35.394Z,86.03
2016-10-09T04:24:57.103Z,86.01
2016-10-09T04:25:18.811Z,85.94
2016-10-09T04:25:40.531Z,85.71
2016-10-09T04:26:02.248Z,85.67
2016-10-09T04:26:23.959Z,85.66
2016-10-09T04:26:50.440Z,85.79
2016-10-09T04:27:12.162Z,85.72
2016-10-09T04:27:33.875Z,85.87
2016-10-09T04:27:55.590Z,86.22
2016-10-09T04:28:17.304Z,86.38
2016-10-09T04:28:39.013Z,86.53
2016-10-09T04:29:00.734Z,86.57
2016-10-09T04:29:22.448Z,86.48
2016-10-09T04:29:44.159Z,86.42
2016-10-09T04:30:05.863Z,86.27
2016-10-09T04:30:27.570Z,86.19
2016-10-09T04:30:49.275Z,86.12
2016-10-09T04:31:11.003Z,86.18
2016-10-09T04:31:32.706Z,86.14
2016-10-09T04:31:54.413Z,86.12
2016-10-09T04:32:16.133Z,86.44
2016-10-09T04:32:37.852Z,86.53
2016-10-09T04:33:05.343Z,86.84
2016-10-09T04:33:27.066Z,86.92
2016-10-09T04:34:24.439Z,86.71
2016-10-09T04:34:46.147Z,86.78
2016-10-09T04:35:07.862Z,86.75
2016-10-09T04:35:29.573Z,86.76
2016-10-09T04:35:51.299Z,86.64
2016-10-09T04:36:13.027Z,86.44
2016-10-09T04:36:34.738Z,86.41
2016-10-09T04:36:56.450Z,86.47
2016-10-09T04:37:18.160Z,86.52
2016-10-09T04:37:39.866Z,86.63
2016-10-09T04:38:01.576Z,86.72
2016-10-09T04:38:23.288Z,86.82
2016-10-09T04:38:45.004Z,86.94
2016-10-09T04:39:06.720Z,87.18
2016-10-09T04:39:28.431Z,87.14
2016-10-09T04:39:50.143Z,86.83
2016-10-09T04:40:12.057Z,86.80
2016-10-09T04:40:33.764Z,86.84
2016-10-09T04:40:55.474Z,86.79
2016-10-09T04:41:17.194Z,86.70
2016-10-09T04:41:38.900Z,86.73
2016-10-09T04:42:00.608Z,86.64
2016-10-09T04:42:22.317Z,86.43
2016-10-09T04:42:44.032Z,86.37
2016-10-09T04:43:05.751Z,86.30
2016-10-09T04:43:27.461Z,86.48
2016-10-09T04:43:49.176Z,86.31
2016-10-09T04:44:10.890Z,86.28
2016-10-09T04:44:32.601Z,86.51
2016-10-09T04:44:54.316Z,86.85
2016-10-09T04:45:16.028Z,86.98
2016-10-09T04:45:38.738Z,86.89
2016-10-09T04:46:00.455Z,86.62
2016-10-09T04:46:22.165Z,86.72
2016-10-09T04:46:43.879Z,86.65
2016-10-09T04:47:05.605Z,86.38
2016-10-09T04:47:27.316Z,86.49
2016-10-09T04:47:49.036Z,86.48
2016-10-09T04:48:10.746Z,86.55
2016-10-09T04:48:32.464Z,86.45
2016-10-09T04:48:54.188Z,86.32
2016-10-09T04:49:15.901Z,86.35
2016-10-09T04:49:37.612Z,86.34
2016-10-09T04:49:59.324Z,86.57
2016-10-09T04:50:21.041Z,86.60
2016-10-09T04:50:42.753Z,86.53
2016-10-09T04:51:04.471Z,86.49
2016-10-09T04:51:27.184Z,86.50
2016-10-09T04:51:48.897Z,86.45
2016-10-09T04:52:15.380Z,86.22
2016-10-09T04:52:37.084Z,86.23
2016-10-09T04:52:58.797Z,86.37
2016-10-09T04:53:20.515Z,86.40
2016-10-09T04:53:42.225Z,86.41
2016-10-09T04:54:03.957Z,86.49
2016-10-09T04:55:07.470Z,86.53
2016-10-09T04:55:29.188Z,86.38
2016-10-09T04:55:55.668Z,86.40
2016-10-09T04:56:17.396Z,86.60
2016-10-09T04:56:39.108Z,86.73
2016-10-09T04:57:00.847Z,86.91
2016-10-09T04:57:22.556Z,86.93
2016-10-09T04:57:44.277Z,87.01
2016-10-09T04:58:05.992Z,86.93
2016-10-09T04:58:27.701Z,86.86
2016-10-09T04:58:49.418Z,86.90
2016-10-09T04:59:11.130Z,86.83
2016-10-09T04:59:32.850Z,86.85
2016-10-09T04:59:54.556Z,86.79
2016-10-09T05:00:42.761Z,86.83
2016-10-09T05:01:04.471Z,86.86
2016-10-09T05:01:30.961Z,86.77
2016-10-09T05:01:52.679Z,86.87
2016-10-09T05:02:14.390Z,86.79
2016-10-09T05:02:36.097Z,86.76
2016-10-09T05:02:57.802Z,86.75
2016-10-09T05:03:19.512Z,86.64
2016-10-09T05:03:41.227Z,86.54
2016-10-09T05:04:02.942Z,86.70
2016-10-09T05:04:24.657Z,86.57
2016-10-09T05:04:46.374Z,86.61
2016-10-09T05:05:08.087Z,86.66
2016-10-09T05:05:29.790Z,86.38
2016-10-09T05:05:51.506Z,86.47
2016-10-09T05:06:13.222Z,86.52
2016-10-09T05:06:34.934Z,86.56
2016-10-09T05:06:56.649Z,86.59
2016-10-09T05:07:18.362Z,86.64
2016-10-09T05:07:40.076Z,86.92
2016-10-09T05:08:01.787Z,87.18
2016-10-09T05:08:23.494Z,86.94
2016-10-09T05:08:49.979Z,87.03
2016-10-09T05:09:11.692Z,87.11
2016-10-09T05:09:33.406Z,87.21
2016-10-09T05:09:59.708Z,87.32
2016-10-09T05:10:21.425Z,87.26
2016-10-09T05:10:43.132Z,87.09
2016-10-09T05:11:41.382Z,87.33
2016-10-09T05:12:03.095Z,87.16
2016-10-09T05:12:24.811Z,87.09
2016-10-09T05:12:46.540Z,86.92
2016-10-09T05:13:08.249Z,86.99
2016-10-09T05:13:29.966Z,86.82
2016-10-09T05:13:51.676Z,86.65
2016-10-09T05:14:13.407Z,86.65
2016-10-09T05:14:35.121Z,86.71
2016-10-09T05:14:56.844Z,86.76
2016-10-09T05:15:18.559Z,86.96
2016-10-09T05:15:40.271Z,87.22